Iowa Falls, IA

4:36 AM CDT on June 24, 2017 (GMT -0500)
Iowa Falls Municipal

Weather History for KIFA - November, 2012

Change the Weather History Date:

Sunday, November 11, 2012

  Actual Average Record
Temperature  
Mean Temperature 42 °F -  
Max Temperature 64 °F 44 °F 69 °F (1964)
Min Temperature 21 °F 26 °F -5 °F (1986)
Degree Days  
Heating Degree Days 22    
Moisture  
Dew Point 33 °F    
Average Humidity 82    
Maximum Humidity 95    
Minimum Humidity 58    
Precipitation  
Precipitation 0.02 in - - ()
Sea Level Pressure  
Sea Level Pressure 29.82 in    
Wind  
Wind Speed 17 mph (West)    
Max Wind Speed 23 mph    
Max Gust Speed 29 mph    
Visibility 9 miles    
Events Rain    
Averages and records for this station are not official NWS values.
T = Trace of Precipitation, MM = Missing Value Source: NWS Daily Summary

Daily Weather History Graph

Daily Weather History Graph

Search for Another Location

Airport or City:

Trip Planner

Search our weather history database for the weather conditions in past years. The results will help you decide how hot, cold, wet, or windy it might be!

Date:

Astronomy

Nov. 11, 2012 Rise Set
Actual Time 6:59 AM CST 4:54 PM CST
Civil Twilight 6:29 AM CST 5:24 PM CST
Nautical Twilight 5:55 AM CST 5:57 PM CST
Astronomical Twilight 5:22 AM CST 6:30 PM CST
Moon 4:11 AM CST (11/11) 3:20 PM CST (11/11)
Length of Visible Light 10h 54m
Length of Day
9h 54m
Waning Crescent, 7% of the Moon is Illuminated
Nov 11
Waning Crescent
Nov 13
New
Nov 20
First Quarter
Nov 28
Full
Dec 6
Last Quarter

Hourly Weather History & Observations

Time (CST) Temp. Windchill Dew Point Humidity Pressure Visibility Wind Dir Wind Speed Gust Speed Precip Events Conditions
12:35 AM 64.8 °F - 50.0 °F 59% 29.65 in 10.0 mi South 17.3 mph - N/A   Overcast
12:55 AM 64.9 °F - 50.0 °F 58% 29.65 in 10.0 mi South 18.4 mph - N/A   Overcast
1:15 AM 64.9 °F - 50.2 °F 59% 29.65 in 10.0 mi SSW 17.3 mph 21.9 mph N/A   Overcast
1:35 AM 63.7 °F - 51.6 °F 65% 29.65 in 10.0 mi SSW 16.1 mph 23.0 mph N/A Rain Rain
1:55 AM 61.7 °F - 52.7 °F 72% 29.64 in 10.0 mi South 16.1 mph - N/A   Overcast
2:15 AM 60.4 °F - 53.8 °F 79% 29.64 in 10.0 mi South 13.8 mph - N/A   Scattered Clouds
2:35 AM 60.1 °F - 54.1 °F 81% 29.63 in 10.0 mi South 12.7 mph - N/A Rain Light Rain
2:55 AM 59.9 °F - 54.3 °F 82% 29.67 in 10.0 mi South 17.3 mph 21.9 mph N/A   Light Drizzle
3:15 AM 59.9 °F - 54.0 °F 81% 29.66 in 10.0 mi South 17.3 mph - N/A Rain Light Rain
3:35 AM 59.0 °F - 53.8 °F 83% 29.67 in 10.0 mi SSW 16.1 mph - N/A   Overcast
3:55 AM 58.5 °F - 53.6 °F 84% 29.67 in 10.0 mi South 17.3 mph 23.0 mph N/A Rain Rain
4:15 AM 57.7 °F - 53.1 °F 84% 29.64 in 10.0 mi South 15.0 mph - N/A Rain Light Rain
4:35 AM 57.2 °F - 52.9 °F 85% 29.65 in 10.0 mi South 11.5 mph - N/A   Mostly Cloudy
5:15 AM 52.2 °F - 47.3 °F 83% 29.68 in 10.0 mi WNW 13.8 mph 20.7 mph N/A   Overcast
5:35 AM 47.1 °F - 44.2 °F 90% 29.70 in 10.0 mi West 12.7 mph - N/A   Overcast
5:55 AM 46.0 °F 38.8 °F 43.3 °F 90% 29.72 in 10.0 mi West 18.4 mph - N/A Rain Rain
6:15 AM 44.6 °F 37.4 °F 42.3 °F 91% 29.72 in 7.0 mi WNW 16.1 mph 19.6 mph N/A Rain Rain
6:35 AM 42.8 °F 34.0 °F 40.5 °F 91% 29.71 in 7.0 mi WNW 20.7 mph - N/A Rain Rain
6:55 AM 42.1 °F 35.2 °F 39.7 °F 91% 29.70 in 7.0 mi WNW 12.7 mph - 0.01 in Rain Rain
7:35 AM 40.8 °F 34.5 °F 38.3 °F 91% 29.73 in 10.0 mi WNW 10.4 mph - N/A Rain Rain
8:15 AM 37.9 °F 27.9 °F 35.8 °F 92% 29.77 in 7.0 mi West 19.6 mph - N/A Rain Rain
8:35 AM 37.4 °F 28.9 °F 35.1 °F 91% 29.76 in 4.0 mi WNW 13.8 mph - N/A Rain Rain
8:55 AM 37.6 °F 30.0 °F 35.6 °F 93% 29.74 in 3.0 mi NW 11.5 mph - 0.01 in Rain Rain
9:15 AM 37.6 °F 29.1 °F 35.6 °F 93% 29.73 in 10.0 mi NW 13.8 mph 19.6 mph N/A Rain Light Rain
9:35 AM 36.9 °F 26.8 °F 34.7 °F 92% 29.79 in 10.0 mi WNW 18.4 mph - N/A Rain Light Rain
9:55 AM 35.8 °F 26.1 °F 33.4 °F 91% 29.79 in 10.0 mi WNW 16.1 mph 21.9 mph N/A   Drizzle
10:15 AM 35.6 °F 24.8 °F 33.3 °F 91% 29.79 in 4.0 mi NW 19.6 mph 25.3 mph N/A Rain Rain
10:35 AM 34.9 °F 24.2 °F 32.7 °F 92% 29.79 in 3.0 mi NW 18.4 mph 23.0 mph N/A Rain Light Rain
11:15 AM 33.8 °F 23.2 °F 32.0 °F 93% 29.79 in 2.0 mi NNW 17.3 mph 23.0 mph N/A Rain Light Rain
11:35 AM 33.1 °F 22.6 °F 31.8 °F 95% 29.77 in 7.0 mi NNW 16.1 mph - N/A Rain Light Rain
11:55 AM 32.9 °F 22.4 °F 31.5 °F 94% 29.78 in 10.0 mi NNW 16.1 mph 20.7 mph N/A   Overcast
12:15 PM 32.9 °F 22.0 °F 30.9 °F 92% 29.81 in 7.0 mi NW 17.3 mph - N/A   Overcast
12:35 PM 32.2 °F 21.8 °F 30.6 °F 94% 29.82 in 5.0 mi WNW 15.0 mph 23.0 mph N/A   Overcast
1:15 PM 32.0 °F 21.2 °F 29.3 °F 90% 29.81 in 10.0 mi WNW 16.1 mph - N/A   Overcast
1:35 PM 31.8 °F 19.9 °F 29.3 °F 90% 29.81 in 2.5 mi NW 19.6 mph 24.2 mph N/A   Overcast
1:55 PM 31.1 °F 18.9 °F 28.9 °F 92% 29.82 in 3.0 mi WNW 19.6 mph - N/A   Overcast
2:15 PM 31.1 °F 18.6 °F 28.2 °F 89% 29.83 in 5.0 mi WNW 20.7 mph 25.3 mph N/A   Overcast
2:35 PM 30.7 °F 18.1 °F 27.5 °F 88% 29.84 in 10.0 mi WNW 20.7 mph - N/A   Overcast
2:55 PM 30.7 °F 18.1 °F 27.0 °F 86% 29.84 in 10.0 mi WNW 20.7 mph 28.8 mph N/A   Overcast
3:15 PM 30.7 °F 18.1 °F 26.2 °F 83% 29.85 in 10.0 mi WNW 20.7 mph 25.3 mph N/A   Overcast
3:35 PM 30.9 °F 18.4 °F 26.2 °F 83% 29.85 in 10.0 mi WNW 20.7 mph 25.3 mph N/A   Overcast
4:15 PM 30.2 °F 16.8 °F 25.0 °F 81% 29.86 in 10.0 mi WNW 23.0 mph 28.8 mph N/A   Overcast
4:35 PM 30.2 °F 18.5 °F 24.6 °F 80% 29.89 in 10.0 mi WNW 17.3 mph 25.3 mph N/A   Overcast
5:15 PM 30.2 °F 18.1 °F 23.4 °F 76% 29.92 in 10.0 mi West 18.4 mph 27.6 mph N/A   Overcast
5:35 PM 29.8 °F 17.3 °F 22.8 °F 75% 29.93 in 10.0 mi West 19.6 mph 24.2 mph N/A   Overcast
6:15 PM 28.8 °F 15.5 °F 21.2 °F 73% 29.96 in 10.0 mi West 20.7 mph 26.5 mph N/A   Overcast
6:35 PM 28.2 °F 14.5 °F 20.8 °F 74% 29.97 in 10.0 mi WNW 21.9 mph - N/A   Mostly Cloudy
6:55 PM 27.5 °F 14.2 °F 20.5 °F 75% 29.97 in 10.0 mi WNW 19.6 mph - N/A   Scattered Clouds
7:15 PM 27.0 °F 13.5 °F 19.9 °F 75% 29.98 in 10.0 mi West 19.6 mph - N/A   Scattered Clouds
7:35 PM 26.6 °F 13.4 °F 19.4 °F 74% 29.99 in 10.0 mi West 18.4 mph - N/A   Clear
8:15 PM 25.7 °F 12.7 °F 18.0 °F 73% 30.01 in 10.0 mi West 17.3 mph - N/A   Clear
8:35 PM 25.3 °F 12.6 °F 18.3 °F 75% 30.01 in 10.0 mi West 16.1 mph 21.9 mph N/A   Clear
9:15 PM 24.6 °F 11.7 °F 16.5 °F 71% 30.04 in 10.0 mi West 16.1 mph - N/A   Clear
9:35 PM 24.1 °F 12.0 °F 17.4 °F 76% 30.04 in 10.0 mi West 13.8 mph - N/A   Clear
9:55 PM 23.7 °F 9.7 °F 17.2 °F 76% 30.04 in 10.0 mi West 18.4 mph 23.0 mph N/A   Clear
10:15 PM 23.4 °F 10.1 °F 15.8 °F 73% 30.05 in 10.0 mi West 16.1 mph - N/A   Clear
10:35 PM 22.8 °F 9.9 °F 16.2 °F 76% 30.05 in 10.0 mi West 15.0 mph - N/A   Clear
10:55 PM 22.5 °F 8.0 °F 15.6 °F 75% 30.05 in 10.0 mi WNW 18.4 mph 23.0 mph N/A   Scattered Clouds
11:15 PM 22.1 °F 7.6 °F 14.9 °F 74% 30.05 in 10.0 mi West 18.4 mph - N/A   Clear
11:35 PM 21.7 °F 7.1 °F 14.2 °F 73% 30.06 in 10.0 mi West 18.4 mph 24.2 mph N/A   Clear
11:55 PM 21.4 °F 8.5 °F 14.0 °F 73% 30.06 in 10.0 mi West 13.8 mph - N/A   Clear